• Join FlightAware (Why Join?)
  • Login
  • US Flag 
11:26PM EDT


 

Airport Tracker/Info


-or-


 

Live Flight TrackerFlight Track Log ✈ N1BN ✈ 30-Oct-2013 ✈ KPBI - KSJC

Flight Track Log - Related Links

Times and Time Zones

All times are in EDT time to prevent confusion due to time zone crossing. See the N1BN flight status page for this flight to view local times or setup timezone preferences in your user account.

Time Position Orientation Groundspeed Altitude Reporting Facility
EDT Latitude Longitude Course Direction KTS MPH feet Rate Location/Type
10:49AM 26.6789 -80.0233 270° West 198 228 3,900  Level Miami Center
10:50AM 26.7297 -79.9967 25° Northeast 193 222 6,500 3,000 Climbing Miami Center
10:51AM 26.8083 -80.0244 342° North 209 241 9,900 2,700 Climbing Miami Center
10:52AM 26.8314 -80.1228 285° West 279 321 11,900 1,980 Climbing Miami Center
10:53AM 26.8456 -80.2256 279° West 337 388 13,900 2,220 Climbing Miami Center
10:54AM 26.9917 -80.7632 270° West  Level Estimated
10:54AM 26.8722 -80.3358 285° West 365 420 16,400  Level Miami Center
10:55AM 26.9025 -80.4647 285° West 380 437 19,100 2,520 Climbing Miami Center
10:56AM 26.9331 -80.5822 286° West 386 444 21,500 2,400 Climbing Miami Center
10:57AM 26.9611 -80.7044 284° West 397 457 23,900 2,280 Climbing Miami Center
10:58AM 26.9894 -80.8147 286° West 406 467 26,100 2,100 Climbing Miami Center
10:59AM 27.0214 -80.9417 286° West 411 473 28,100 1,920 Climbing Miami Center
11:00AM 27.0511 -81.0733 284° West 424 488 30,000 1,920 Climbing Miami Center
11:01AM 27.0828 -81.2075 285° West 434 499 32,000 2,100 Climbing Miami Center
11:02AM 27.1100 -81.3392 283° West 439 505 34,300 2,640 Climbing Miami Center
11:03AM 27.1353 -81.4636 283° West 421 484 37,300 2,100 Climbing Miami Center
11:04AM 27.1628 -81.5839 284° West 404 465 38,600 1,320 Climbing Miami Center
11:05AM 27.1897 -81.7156 283° West 399 459 40,000 1,200 Climbing Miami Center
11:06AM 27.2169 -81.8381 284° West 400 460 41,000 1,080 Climbing Miami Center
11:07AM 27.2417 -81.9606 283° West 405 466 42,200 960 Climbing Miami Center
11:08AM 27.2631 -82.0689 283° West 397 457 43,000 360 Climbing Miami Center
11:09AM 27.2897 -82.1917 284° West 397 457 43,000  Level Miami Center
11:10AM 27.3181 -82.3283 283° West 397 457 43,000  Level Miami Center
11:11AM 27.3425 -82.4533 282° West 403 464 43,000  Level Miami Center
11:12AM 27.3689 -82.5786 283° West 409 471 43,000  Level Miami Center
11:13AM 27.3872 -82.6917 280° West 414 476 43,000  Level Miami Center
11:14AM 27.4156 -82.8147 285° West 414 476 43,000  Level Miami Center
11:15AM 27.4433 -82.9542 283° West 414 476 43,000  Level Miami Center
11:16AM 27.4692 -83.0794 283° West 414 476 43,000  Level Miami Center
11:17AM 27.4931 -83.2047 282° West 414 476 43,000  Level Miami Center
11:18AM 27.5186 -83.3325 283° West 414 476 43,000  Level Miami Center
11:19AM 27.5422 -83.4553 282° West 414 476 43,000  Level Miami Center
11:20AM 27.5697 -83.5833 284° West 414 476 43,000  Level Miami Center
11:21AM 27.5931 -83.7089 282° West 414 476 43,000  Level Miami Center
11:22AM 27.6183 -83.8319 283° West 414 476 43,000  Level Miami Center
11:23AM 27.6372 -83.9572 280° West 414 476 43,000  Level Miami Center
11:24AM 27.6622 -84.0828 283° West 414 476 43,000  Level Miami Center
11:25AM 27.7064 -84.2778 284° West 410 472 43,000  Level Jacksonville Center
11:26AM 27.7281 -84.4047 281° West 410 472 43,000  Level Jacksonville Center
11:27AM 27.7514 -84.5292 282° West 410 472 43,000  Level Jacksonville Center
11:28AM 27.7706 -84.6561 280° West 410 472 43,000  Level Jacksonville Center
11:29AM 27.7961 -84.7761 284° West 410 472 43,000  Level Jacksonville Center
11:30AM 27.8192 -84.9033 282° West 410 472 43,000  Level Jacksonville Center
11:31AM 27.8422 -85.0258 282° West 410 472 43,000  Level Jacksonville Center
11:32AM 27.8631 -85.1506 281° West 410 472 43,000  Level Jacksonville Center
11:33AM 27.8900 -85.2781 283° West 410 472 43,000  Level Jacksonville Center
11:34AM 27.9275 -85.3964 290° West 405 466 43,000  Level Jacksonville Center
11:35AM 27.9625 -85.5217 288° West 405 466 43,000  Level Jacksonville Center
11:36AM 27.9975 -85.6425 288° West 405 466 43,000  Level Jacksonville Center
11:37AM 28.0344 -85.7658 289° West 405 466 43,000  Level Jacksonville Center
11:38AM 28.0714 -85.8819 290° West 404 465 43,000  Level Jacksonville Center
11:39AM 28.1081 -86.0078 288° West 404 465 43,000  Level Jacksonville Center
11:40AM 28.1447 -86.1267 289° West 404 465 43,000 -60 Level Jacksonville Center
11:41AM 28.1792 -86.2478 288° West 409 471 42,900  Descending Jacksonville Center
11:42AM 28.2156 -86.3739 288° West 409 471 43,000  Climbing Jacksonville Center
11:43AM 28.2519 -86.4906 290° West 409 471 43,000  Level Jacksonville Center
11:44AM 28.2881 -86.6119 289° West 409 471 43,000  Level Jacksonville Center
11:45AM 28.3203 -86.7264 288° West 403 464 43,000  Level Jacksonville Center
11:46AM 28.3561 -86.8481 289° West 403 464 43,000  Level Jacksonville Center
11:47AM 28.3900 -86.9672 288° West 403 464 43,000  Level Jacksonville Center
11:48AM 28.4258 -87.0842 289° West 403 464 43,000  Level Jacksonville Center
11:49AM 28.4439 -87.1494 287° West 400 460 43,000  Level Houston Center
11:50AM 28.4792 -87.2706 288° West 400 460 43,000  Level Houston Center
11:51AM 28.5128 -87.3881 288° West 399 459 43,000  Level Houston Center
11:52AM 28.5472 -87.5083 288° West 396 456 43,000  Level Houston Center
11:53AM 28.5817 -87.6281 288° West 400 460 43,000  Level Houston Center
11:54AM 28.6156 -87.7472 288° West 398 458 43,000  Level Houston Center
11:55AM 28.6561 -87.8906 288° West 396 456 43,000  Level Houston Center
11:56AM 28.6897 -88.0094 288° West 394 453 43,000  Level Houston Center
11:57AM 28.7231 -88.1208 289° West 392 451 43,000  Level Houston Center
11:58AM 28.7742 -88.2322 298° West 396 456 43,000  Level Houston Center
11:59AM 28.8375 -88.3661 298° West 396 456 43,000  Level Houston Center
12:00PM 28.8886 -88.4758 298° West 397 457 43,000  Level Houston Center
12:01PM 28.9408 -88.5872 298° West 395 455 43,000  Level Houston Center
12:02PM 28.9931 -88.6981 298° West 399 459 43,000  Level Houston Center
12:03PM 29.0450 -88.8097 298° West 395 455 43,000  Level Houston Center
12:04PM 29.0956 -88.9181 298° West 391 450 43,000  Level Houston Center
12:05PM 29.1572 -89.0508 298° West 395 455 43,000  Level Houston Center
12:06PM 29.2089 -89.1622 298° West 394 453 43,000  Level Houston Center
12:07PM 29.2600 -89.2731 298° West 394 453 43,000  Level Houston Center
12:08PM 29.3108 -89.3836 298° West 389 448 43,000  Level Houston Center
12:09PM 29.3619 -89.4947 298° West 390 449 43,000  Level Houston Center
12:11PM 29.4125 -89.6047 298° West 392 451 43,000  Level Houston Center
12:12PM 29.4722 -89.7364 298° West 386 444 43,000  Level Houston Center
12:13PM 29.5219 -89.8456 298° West 388 447 43,000  Level Houston Center
12:14PM 29.5722 -89.9561 298° West 391 450 43,000  Level Houston Center
12:15PM 29.6222 -90.0675 297° West 388 447 43,000  Level Houston Center
12:16PM 29.6725 -90.1781 298° West 394 453 43,000  Level Houston Center
12:17PM 29.7222 -90.2889 297° West 392 451 43,000  Level Houston Center
12:22PM 29.9943 -90.8989 297° West 391 450 43,000  Level FlightAware ADS-B
12:23PM 30.0478 -91.0206 297° West 396 456 43,000  Level FlightAware ADS-B
12:24PM 30.0797 -91.0930 297° West 395 455 43,000  Level FlightAware ADS-B
12:25PM 30.1649 -91.2866 297° West 386 444 43,000  Level FlightAware ADS-B
12:26PM 30.1971 -91.3598 297° West 386 444 43,000  Level FlightAware ADS-B
12:27PM 30.2425 -91.4647 297° West 386 444 43,000  Level FlightAware ADS-B
12:28PM 30.2724 -91.5326 297° West 388 447 43,000  Level FlightAware ADS-B
12:28PM 30.2980 -91.5916 297° West 389 448 43,000  Level FlightAware ADS-B
12:29PM 30.3423 -91.6937 297° West 388 447 43,000  Level FlightAware ADS-B
12:30PM 30.3783 -91.7769 297° West 388 447 43,000  Level FlightAware ADS-B
12:30PM 30.4033 -91.8348 297° West 387 445 43,000  Level FlightAware ADS-B
12:31PM 30.4353 -91.9099 296° West 386 444 43,000  Level FlightAware ADS-B
12:32PM 30.4596 -91.9662 297° West 388 447 43,000  Level FlightAware ADS-B
12:32PM 30.4842 -92.0227 297° West 390 449 43,000  Level FlightAware ADS-B
12:33PM 30.5108 -92.0847 296° West 389 448 43,000  Level FlightAware ADS-B
12:33PM 30.5369 -92.1464 296° West 390 449 43,000  Level FlightAware ADS-B
12:34PM 30.5614 -92.2033 297° West 389 448 43,000  Level FlightAware ADS-B
12:34PM 30.5884 -92.2666 296° West 388 447 43,000  Level FlightAware ADS-B
12:35PM 30.6325 -92.3707 296° West 387 445 43,000  Level FlightAware ADS-B
12:36PM 30.6766 -92.4739 296° West 387 445 43,000  Level FlightAware ADS-B
12:37PM 30.7146 -92.5628 296° West 394 453 43,000  Level FlightAware ADS-B
12:38PM 30.7760 -92.7092 296° West 393 452 43,000  Level FlightAware ADS-B
12:39PM 30.8088 -92.7865 296° West 394 453 43,000  Level FlightAware ADS-B
12:40PM 30.8445 -92.8718 296° West 394 453 43,000  Level FlightAware ADS-B
12:40PM 30.8714 -92.9358 296° West 395 455 43,000  Level FlightAware ADS-B
12:41PM 30.8965 -92.9956 296° West 395 455 43,000  Level FlightAware ADS-B
12:42PM 30.9425 -93.1057 296° West 389 448 43,000  Level FlightAware ADS-B
12:42PM 30.9674 -93.1654 296° West 388 447 43,000  Level FlightAware ADS-B
12:43PM 30.9989 -93.2408 296° West 390 449 43,000  Level FlightAware ADS-B
12:43PM 31.0239 -93.3012 296° West 391 450 43,000  Level FlightAware ADS-B
12:44PM 31.0475 -93.3584 296° West 395 455 43,000  Level FlightAware ADS-B
12:44PM 31.0716 -93.4164 296° West 398 458 43,000  Level FlightAware ADS-B
12:45PM 31.0955 -93.4746 296° West 395 455 43,000  Level FlightAware ADS-B
12:46PM 31.1222 -93.5395 296° West 390 449 43,000  Level FlightAware ADS-B
12:46PM 31.1464 -93.5978 296° West 387 445 43,000  Level FlightAware ADS-B
12:47PM 31.1710 -93.6580 296° West 382 440 43,000  Level FlightAware ADS-B
12:47PM 31.1941 -93.7145 296° West 378 435 43,000  Level FlightAware ADS-B
12:48PM 31.2167 -93.7696 296° West 379 436 43,000  Level FlightAware ADS-B
12:48PM 31.2428 -93.8334 296° West 382 440 43,000  Level FlightAware ADS-B
12:49PM 31.2661 -93.8905 296° West 383 441 43,000  Level FlightAware ADS-B
12:49PM 31.2896 -93.9479 296° West 390 449 43,000  Level FlightAware ADS-B
12:50PM 31.3134 -94.0056 296° West 391 450 43,000  Level FlightAware ADS-B
12:50PM 31.3389 -94.0685 295° West 392 451 43,000  Level FlightAware ADS-B
12:51PM 31.3623 -94.1260 295° West 393 452 43,000  Level FlightAware ADS-B
12:51PM 31.3875 -94.1879 296° West 394 453 43,000  Level FlightAware ADS-B
12:52PM 31.4348 -94.3052 295° West 393 452 43,000  Level FlightAware ADS-B
12:53PM 31.4599 -94.3669 296° West 394 453 43,000  Level FlightAware ADS-B
12:53PM 31.4833 -94.4252 295° West 394 453 43,000  Level FlightAware ADS-B
12:54PM 31.5065 -94.4835 295° West 395 455 43,000  Level FlightAware ADS-B
12:54PM 31.5303 -94.5424 295° West 396 456 43,000  Level FlightAware ADS-B
12:55PM 31.5539 -94.6011 295° West 398 458 43,000  Level FlightAware ADS-B
12:55PM 31.5779 -94.6611 295° West 398 458 43,000  Level FlightAware ADS-B
12:56PM 31.6014 -94.7202 295° West 400 460 43,000  Level FlightAware ADS-B
12:56PM 31.6251 -94.7794 295° West 401 461 43,000  Level FlightAware ADS-B
12:57PM 31.6517 -94.8465 295° West 399 459 43,000  Level FlightAware ADS-B
12:57PM 31.6754 -94.9064 295° West 399 459 43,000  Level FlightAware ADS-B
12:58PM 31.6991 -94.9660 295° West 400 460 43,000  Level FlightAware ADS-B
12:58PM 31.7239 -95.0287 295° West 403 464 43,000  Level FlightAware ADS-B
12:59PM 31.7476 -95.0886 295° West 402 463 43,000  Level FlightAware ADS-B
12:59PM 31.7714 -95.1488 295° West 402 463 43,000  Level FlightAware ADS-B
01:00PM 31.7969 -95.2135 295° West 404 465 43,000  Level FlightAware ADS-B
01:01PM 31.8220 -95.2774 295° West 405 466 43,000  Level FlightAware ADS-B
01:01PM 31.8457 -95.3384 295° West 402 463 43,000  Level FlightAware ADS-B
01:02PM 31.8932 -95.4601 295° West 404 465 43,000  Level FlightAware ADS-B
01:03PM 31.9293 -95.5526 295° West 403 464 43,000  Level FlightAware ADS-B
01:03PM 31.9525 -95.6122 295° West 396 456 43,000  Level FlightAware ADS-B
01:04PM 31.9756 -95.6720 294° West 397 457 43,000  Level FlightAware ADS-B
01:05PM 32.0219 -95.7912 295° West 412 474 43,000  Level FlightAware ADS-B
01:05PM 32.0473 -95.8560 295° West 419 482 43,000  Level FlightAware ADS-B
01:06PM 32.0847 -95.9207 304° West 424 488 43,000  Level FlightAware ADS-B
01:06PM 32.1201 -95.9755 307° West 418 481 43,000  Level FlightAware ADS-B
01:07PM 32.1407 -96.0117 304° West 411 473 43,000  Level FlightAware ADS-B
01:07PM 32.1480 -96.0277 298° West 407 468 43,000  Level FlightAware ADS-B
01:07PM 32.1717 -96.0891 295° West 405 466 43,000  Level FlightAware ADS-B
01:08PM 32.1957 -96.1508 295° West 402 463 43,000  Level FlightAware ADS-B
01:08PM 32.2185 -96.2111 294° West 398 458 43,000  Level FlightAware ADS-B
01:09PM 32.2412 -96.2708 294° West 398 458 43,000  Level FlightAware ADS-B
01:09PM 32.2641 -96.3313 294° West 401 461 43,000  Level FlightAware ADS-B
01:10PM 32.2882 -96.3948 294° West 406 467 43,000  Level FlightAware ADS-B
01:11PM 32.3212 -96.4824 294° West 409 471 43,000  Level FlightAware ADS-B
01:11PM 32.3463 -96.5492 294° West 404 465 43,000  Level FlightAware ADS-B
01:12PM 32.3587 -96.5822 294° West 402 463 43,000  Level FlightAware ADS-B (KAFW)
01:12PM 32.3696 -96.6111 294° West 401 461 43,000  Level FlightAware ADS-B
01:13PM 32.4326 -96.7783 294° West 399 459 43,000  Level FlightAware ADS-B
01:14PM 32.4625 -96.8582 294° West 399 459 43,000  Level FlightAware ADS-B
01:14PM 32.4850 -96.9189 294° West 402 463 43,000  Level FlightAware ADS-B
01:15PM 32.5097 -96.9853 294° West 402 463 43,000  Level FlightAware ADS-B
01:15PM 32.5176 -97.0067 294° West 401 461 43,000  Level FlightAware ADS-B (KAFW)
01:16PM 32.5446 -97.0792 294° West 400 460 43,000  Level FlightAware ADS-B
01:16PM 32.5427 -97.0740 113° Southeast 401 461 43,000  Level FlightAware ADS-B (KAFW)
01:17PM 32.5923 -97.2090 294° West 400 460 43,000  Level FlightAware ADS-B
01:18PM 32.6251 -97.2978 294° West 397 457 43,000  Level FlightAware ADS-B (KAFW)
01:18PM 32.6557 -97.3802 294° West 396 456 43,000  Level FlightAware ADS-B (KAFW)
01:19PM 32.6829 -97.4550 293° West 396 456 43,000  Level FlightAware ADS-B (KAFW)
01:20PM 32.7129 -97.5372 293° West 394 453 43,000  Level FlightAware ADS-B (KAFW)
01:20PM 32.7407 -97.6132 294° West 393 452 43,000  Level FlightAware ADS-B (KAFW)
01:21PM 32.7734 -97.7032 293° West 391 450 43,000  Level FlightAware ADS-B (KAFW)
01:22PM 32.7995 -97.7745 294° West 388 447 43,000  Level FlightAware ADS-B (KAFW)
01:22PM 32.8226 -97.8378 293° West 391 450 43,000  Level FlightAware ADS-B (KAFW)
01:23PM 32.8494 -97.9037 296° West 395 455 43,000  Level FlightAware ADS-B (KAFW)
01:23PM 32.8777 -97.9717 296° West 396 456 43,000  Level FlightAware ADS-B (KAFW)
01:24PM 32.9070 -98.0422 296° West 399 459 43,000  Level FlightAware ADS-B (KAFW)
01:24PM 32.9170 -98.0662 296° West 398 458 43,000  Level FlightAware ADS-B
01:25PM 32.9430 -98.1284 296° West 400 460 43,000  Level FlightAware ADS-B (KAFW)
01:25PM 32.9768 -98.2093 296° West 399 459 43,000  Level FlightAware ADS-B (KAFW)
01:26PM 33.0102 -98.2896 296° West 398 458 43,000  Level FlightAware ADS-B (KAFW)
01:27PM 33.0589 -98.4075 296° West 400 460 43,000  Level Fort Worth Center
01:28PM 33.1122 -98.5319 297° West 395 455 43,000  Level Fort Worth Center
01:29PM 33.1611 -98.6542 296° West 395 455 43,000  Level Fort Worth Center
01:30PM 33.2100 -98.7717 296° West 400 460 43,000 600 Level Fort Worth Center
01:31PM 33.2589 -98.8867 297° West 400 460 44,200 900 Climbing Fort Worth Center
01:32PM 33.3033 -98.9992 295° West 390 449 44,900 360 Climbing Fort Worth Center
01:33PM 33.3478 -99.1119 295° West 385 443 45,000  Climbing Fort Worth Center
01:34PM 33.3942 -99.2222 297° West 385 443 45,000  Level Fort Worth Center
01:35PM 33.4386 -99.3328 296° West 385 443 45,000  Level Fort Worth Center
01:36PM 33.4847 -99.4483 296° West 380 437 45,000  Level Fort Worth Center
01:37PM 33.5289 -99.5564 296° West 380 437 45,000  Level Fort Worth Center
01:38PM 33.5728 -99.6697 295° West 380 437 45,000  Level Fort Worth Center
01:39PM 33.6186 -99.7806 296° West 380 437 45,000  Level Fort Worth Center
01:40PM 33.6647 -99.8917 297° West 375 432 45,000  Level Fort Worth Center
01:41PM 33.7083 -100.0003 296° West 375 432 45,000  Level Fort Worth Center
01:42PM 33.7497 -100.1114 294° West 370 426 45,000  Level Fort Worth Center
01:43PM 33.7953 -100.2253 296° West 370 426 45,000  Level Fort Worth Center
01:44PM 33.8367 -100.3342 295° West 370 426 45,000  Level Fort Worth Center
01:45PM 33.8842 -100.4458 297° West 365 420 45,000  Level Fort Worth Center
01:46PM 33.9250 -100.5622 293° West 365 420 45,000  Level Fort Worth Center
01:47PM 33.9700 -100.6742 296° West 365 420 45,000  Level Fort Worth Center
01:48PM 34.0131 -100.7861 295° West 365 420 45,000  Level Fort Worth Center
01:49PM 34.0519 -100.8878 295° West 365 420 45,000  Level Fort Worth Center
01:50PM 34.0928 -100.9972 294° West 365 420 45,000  Level Fort Worth Center
01:51PM 34.1433 -101.1222 296° West 365 420 45,000  Level Fort Worth Center
01:53PM 34.2053 -101.2883 294° West 364 419 45,000 60 Level Albuquerque Center
01:54PM 34.2481 -101.4006 295° West 373 429 45,300 360 Climbing Albuquerque Center
01:55PM 34.2994 -101.5364 295° West 372 428 45,800 300 Climbing Albuquerque Center
01:56PM 34.3428 -101.6511 295° West 374 430 46,000 60 Climbing Albuquerque Center
01:57PM 34.3861 -101.7667 294° West 378 435 46,000  Level Albuquerque Center
01:58PM 34.4300 -101.8836 294° West 383 441 46,000  Level Albuquerque Center
01:59PM 34.4733 -102.0006 294° West 380 437 46,000  Level Albuquerque Center
02:00PM 34.5169 -102.1175 294° West 380 437 46,000  Level Albuquerque Center
02:01PM 34.5689 -102.2581 294° West 377 434 46,000  Level Albuquerque Center
02:02PM 34.6125 -102.3750 294° West 376 433 46,000  Level Albuquerque Center
02:03PM 34.6558 -102.4925 294° West 381 438 46,000  Level Albuquerque Center
02:04PM 34.6986 -102.6100 294° West 381 438 46,000  Level Albuquerque Center
02:05PM 34.7425 -102.7297 294° West 387 445 46,000  Level Albuquerque Center
02:06PM 34.7858 -102.8489 294° West 380 437 46,000  Level Albuquerque Center
02:07PM 34.8292 -102.9683 294° West 382 440 46,000  Level Albuquerque Center
02:08PM 34.8797 -103.1081 294° West 387 445 46,000  Level Albuquerque Center
02:09PM 34.9236 -103.2303 294° West 397 457 46,000  Level Albuquerque Center
02:10PM 34.9678 -103.3539 294° West 397 457 46,000  Level Albuquerque Center
02:11PM 35.0117 -103.4772 294° West 398 458 46,000  Level Albuquerque Center
02:12PM 35.0567 -103.6025 294° West 404 465 46,000  Level Albuquerque Center
02:13PM 35.1014 -103.7286 293° West 401 461 46,000  Level Albuquerque Center
02:14PM 35.1444 -103.8514 293° West 387 445 46,000  Level Albuquerque Center
02:15PM 35.1892 -103.9778 293° West 394 453 46,000  Level Albuquerque Center
02:16PM 35.2319 -104.1011 293° West 397 457 46,000  Level Albuquerque Center
02:18PM 35.2842 -104.2519 293° West 410 472 46,000  Level Albuquerque Center
02:19PM 35.3278 -104.3778 293° West 399 459 46,000  Level Albuquerque Center
02:20PM 35.3731 -104.5083 293° West 391 450 46,000  Level Albuquerque Center
02:21PM 35.4164 -104.6336 293° West 401 461 46,000  Level Albuquerque Center
02:22PM 35.4597 -104.7603 293° West 403 464 46,000  Level Albuquerque Center
02:23PM 35.5031 -104.8875 293° West 402 463 46,000  Level Albuquerque Center
02:24PM 35.5467 -105.0167 293° West 409 471 46,000  Level Albuquerque Center
02:25PM 35.5908 -105.1475 293° West 415 478 46,000  Level Albuquerque Center
02:26PM 35.6347 -105.2781 293° West 411 473 46,000  Level Albuquerque Center
02:27PM 35.6872 -105.4344 292° West 425 489 46,000  Level Albuquerque Center
02:28PM 35.7242 -105.5444 293° West 417 480 46,000  Level Albuquerque Center
02:34PM 35.6577 -105.3460 293° West 418 481 46,000  Level FlightAware ADS-B (KANK)
02:38PM 36.1680 -106.9082 292° West 439 505 46,000  Level FlightAware ADS-B (KMTJ)
02:39PM 36.1988 -107.0057 291° West 434 499 46,000  Level FlightAware ADS-B (KMTJ)
02:39PM 36.2278 -107.0981 291° West 430 495 46,000  Level FlightAware ADS-B (KMTJ)
02:40PM 36.2526 -107.1768 291° West 428 493 46,000  Level FlightAware ADS-B (KMTJ)
02:40PM 36.2810 -107.2671 291° West 431 496 46,000  Level FlightAware ADS-B (KMTJ)
02:42PM 36.3400 -107.4558 291° West 435 501 46,000  Level FlightAware ADS-B (KMTJ)
02:43PM 36.3705 -107.5534 291° West 441 507 46,000  Level FlightAware ADS-B (KMTJ)
02:43PM 36.3985 -107.6439 291° West 445 512 46,000  Level FlightAware ADS-B (KMTJ)
02:44PM 36.4219 -107.7185 291° West 439 505 46,000  Level FlightAware ADS-B (KMTJ)
02:44PM 36.4446 -107.7924 291° West 436 502 46,000  Level FlightAware ADS-B (KMTJ)
02:45PM 36.4661 -107.8626 291° West 440 506 46,000  Level FlightAware ADS-B (KMTJ)
02:46PM 36.5039 -107.9863 291° West 445 512 46,000  Level FlightAware ADS-B (KMTJ)
02:46PM 36.5271 -108.0621 291° West 445 512 46,000  Level FlightAware ADS-B (KMTJ)
02:47PM 36.5529 -108.1467 291° West 447 514 46,000  Level FlightAware ADS-B (KMTJ)
02:47PM 36.5751 -108.2200 291° West 446 513 46,000  Level FlightAware ADS-B (KMTJ)
02:48PM 36.5965 -108.2904 291° West 446 513 46,000  Level FlightAware ADS-B (KMTJ)
02:48PM 36.6199 -108.3679 291° West 445 512 46,000  Level FlightAware ADS-B (KMTJ)
02:49PM 36.6489 -108.4641 291° West 445 512 46,000  Level FlightAware ADS-B (KMTJ)
02:49PM 36.6712 -108.5381 291° West 443 510 46,000  Level FlightAware ADS-B (KMTJ)
02:50PM 36.6929 -108.6100 291° West 443 510 46,000  Level FlightAware ADS-B (KMTJ)
02:51PM 36.7177 -108.6927 291° West 439 505 46,000  Level FlightAware ADS-B (KMTJ)
02:51PM 36.7491 -108.7984 290° West 433 498 46,000  Level FlightAware ADS-B (KMTJ)
02:52PM 36.7702 -108.8699 290° West 438 504 46,000  Level FlightAware ADS-B (KMTJ)
02:52PM 36.7914 -108.9407 290° West 443 510 46,000  Level FlightAware ADS-B (KMTJ)
02:53PM 36.8127 -109.0128 290° West 442 509 46,000  Level FlightAware ADS-B (KMTJ)
02:54PM 36.8419 -109.1117 290° West 444 511 46,000  Level FlightAware ADS-B (KMTJ)
02:54PM 36.8053 -108.9875 110° East 447 514 46,000  Level FlightAware ADS-B (KMTJ)
02:55PM 36.9055 -109.3283 290° West 447 514 46,000  Level FlightAware ADS-B (KMTJ)
02:56PM 36.9154 -109.3621 290° West 447 514 46,000  Level FlightAware ADS-B (KMTJ)
02:57PM 36.9154 -109.3621 290° West 450 518 46,000  Level FlightAware ADS-B (KMTJ)
02:58PM 37.0323 -109.7664 290° West 449 517 46,000  Level FlightAware ADS-B (KMTJ)
02:59PM 37.0553 -109.8473 290° West 449 517 46,000  Level FlightAware ADS-B (KMTJ)
02:59PM 37.0891 -109.9663 290° West 449 517 46,000  Level FlightAware ADS-B (KMTJ)
03:00PM 37.1109 -110.0425 290° West 450 518 46,000  Level FlightAware ADS-B (KMTJ)
03:00PM 37.1325 -110.1181 290° West 453 521 46,000  Level FlightAware ADS-B (KMTJ)
03:01PM 37.1677 -110.2422 290° West 457 526 46,000  Level FlightAware ADS-B (KMTJ)
03:02PM 37.1886 -110.3162 289° West 456 525 46,000 180 Level FlightAware ADS-B (KMTJ)
03:02PM 37.2107 -110.3958 289° West 455 524 46,200 360 Climbing FlightAware ADS-B (KMTJ)
03:03PM 37.2348 -110.4820 289° West 458 527 46,400 300 Climbing FlightAware ADS-B (KMTJ)
03:03PM 37.2565 -110.5591 290° West 458 527 46,600 300 Climbing FlightAware ADS-B (KMTJ)
03:04PM 37.2775 -110.6369 290° West 454 522 46,800 180 Climbing Denver Center
03:05PM 37.3197 -110.7869 290° West 456 525 47,000 60 Climbing Denver Center
03:06PM 37.3614 -110.9372 289° West 456 525 47,000  Level Denver Center
03:12PM 37.6223 -111.9042 289° West 466 536 47,000  Level FlightAware ADS-B (KBTF)
03:13PM 37.6491 -112.0056 289° West 468 539 47,000  Level FlightAware ADS-B (KBTF)
03:14PM 37.6777 -112.1137 288° West 464 534 47,000  Level FlightAware ADS-B (KBTF)
03:14PM 37.7033 -112.2118 288° West 460 529 47,000  Level FlightAware ADS-B (KBTF)
03:15PM 37.7264 -112.3006 288° West 456 525 47,000  Level FlightAware ADS-B (KBTF)
03:15PM 37.7461 -112.3762 288° West 460 529 47,000  Level FlightAware ADS-B (KBTF)
03:16PM 37.7708 -112.4710 288° West 461 531 47,000  Level FlightAware ADS-B
03:16PM 37.7767 -112.4941 288° West 461 531 47,000  Level FlightAware ADS-B (KBTF)
03:16PM 37.7925 -112.5550 288° West 461 531 47,000  Level FlightAware ADS-B
03:17PM 37.8008 -112.5874 288° West 458 527 47,000  Level FlightAware ADS-B (KBTF)
03:17PM 37.8270 -112.6899 288° West 458 527 47,000  Level FlightAware ADS-B (KBTF)
03:18PM 37.8430 -112.7520 288° West 459 528 47,000  Level FlightAware ADS-B
03:18PM 37.8483 -112.7727 288° West 457 526 47,000  Level FlightAware ADS-B (KBTF)
03:18PM 37.8679 -112.8488 288° West 454 522 47,000  Level FlightAware ADS-B (KBTF)
03:19PM 37.8747 -112.8760 288° West 454 522 47,000  Level FlightAware ADS-B
03:19PM 37.8903 -112.9365 288° West 449 517 47,000  Level FlightAware ADS-B (KBTF)
03:20PM 37.9126 -113.0242 288° West 446 513 47,000  Level FlightAware ADS-B (KBTF)
03:20PM 37.9362 -113.1176 288° West 449 517 47,000  Level FlightAware ADS-B (KBTF)
03:21PM 37.9542 -113.1889 288° West 456 525 47,000  Level FlightAware ADS-B
03:21PM 37.9825 -113.3011 288° West 461 531 47,000  Level FlightAware ADS-B
03:23PM 38.0395 -113.5293 288° West 458 527 47,000  Level FlightAware ADS-B
03:24PM 38.0741 -113.6703 287° West 456 525 47,000  Level FlightAware ADS-B
03:25PM 38.1039 -113.7912 287° West 459 528 47,000  Level FlightAware ADS-B
03:25PM 38.1291 -113.8931 287° West 463 533 47,000  Level FlightAware ADS-B
03:27PM 38.2050 -114.2076 287° West 452 520 47,000  Level FlightAware ADS-B
03:28PM 38.2413 -114.3596 287° West 454 522 47,000  Level FlightAware ADS-B
03:29PM 38.2431 -114.5039 287° West 461 531 47,000  Level Salt Lake Center
03:30PM 38.2339 -114.6697 266° West 470 541 47,000  Level Salt Lake Center
03:31PM 38.2228 -114.8339 265° West 468 539 47,000  Level Salt Lake Center
03:32PM 38.2108 -115.0336 266° West 473 544 47,000  Level Salt Lake Center
03:33PM 38.2008 -115.1994 266° West 472 543 47,000  Level Salt Lake Center
03:34PM 38.1875 -115.3808 265° West 474 545 47,000  Level Salt Lake Center
03:36PM 38.1764 -115.5456 265° West 471 542 47,000  Level Salt Lake Center
03:37PM 38.1650 -115.7119 265° West 473 544 47,000  Level Salt Lake Center
03:38PM 38.1531 -115.8797 265° West 476 548 47,000  Level Salt Lake Center
03:39PM 38.1406 -116.0453 265° West 472 543 47,000  Level Salt Lake Center
03:40PM 38.1269 -116.2128 264° West 474 545 47,000  Level Salt Lake Center
03:41PM 38.1161 -116.3792 265° West 474 545 47,000  Level Salt Lake Center
03:42PM 38.1003 -116.5800 264° West 475 547 47,000  Level Salt Lake Center
03:43PM 38.0878 -116.7489 265° West 478 550 47,000  Level Salt Lake Center
03:44PM 38.0775 -116.8836 265° West 479 551 47,000  Level Oakland Center
03:45PM 38.0564 -117.0542 261° West 483 556 47,000  Level Oakland Center
03:46PM 37.9975 -117.2183 246° West 496 571 47,000  Level Oakland Center
03:47PM 37.9364 -117.3800 244° Southwest 499 574 47,000  Level Oakland Center
03:48PM 37.8747 -117.5406 244° Southwest 503 579 47,000 -180 Level Oakland Center
03:49PM 37.8142 -117.6975 244° Southwest 497 572 46,700 -780 Descending Oakland Center
03:50PM 37.7531 -117.8578 244° Southwest 502 578 45,500 -1,380 Descending Oakland Center
03:51PM 37.6786 -118.0486 244° Southwest 504 580 43,900 -1,500 Descending Oakland Center
03:52PM 37.6203 -118.2089 245° Southwest 501 577 42,500 -1,440 Descending Oakland Center
03:53PM 37.5858 -118.3769 256° West 493 567 41,000 -1,500 Descending Oakland Center
03:54PM 37.5517 -118.5447 256° West 495 570 39,500 -1,500 Descending Oakland Center
03:55PM 37.5169 -118.7094 255° West 490 564 38,000 -1,560 Descending Oakland Center
03:56PM 37.4831 -118.8775 256° West 483 556 36,400 -1,560 Descending Oakland Center
03:57PM 37.4483 -119.0356 255° West 473 544 34,900 -1,500 Descending Oakland Center
03:58PM 37.4192 -119.1953 257° West 471 542 33,400 -1,500 Descending Oakland Center
03:59PM 37.3931 -119.3536 258° West 466 536 31,900 -1,620 Descending Oakland Center
04:00PM 37.3622 -119.5439 259° West 470 541 30,200 -1,860 Descending Oakland Center
04:01PM 37.3381 -119.6994 259° West 454 522 28,200 -1,800 Descending Oakland Center
04:02PM 37.3131 -119.8492 258° West 444 511 26,500 -1,680 Descending Oakland Center
04:03PM 37.2869 -119.9981 258° West 439 505 24,800 -1,680 Descending Oakland Center
04:04PM 37.2642 -120.1378 258° West 418 481 23,100 -1,740 Descending Oakland Center
04:05PM 37.2414 -120.2742 258° West 402 463 21,300 -2,100 Descending Oakland Center
04:06PM 37.2194 -120.4036 258° West 384 442 18,800 -2,520 Descending Oakland Center
04:07PM 37.1900 -120.5344 254° West 387 445 16,200 -1,320 Descending Oakland Center
04:13PM 37.0790 -121.2840 254° West 315 362 9,800 -1,020 Descending FlightAware ADS-B
04:14PM 37.0724 -121.3420 262° West 301 346 9,800  Level FlightAware ADS-B
04:14PM 37.0693 -121.3680 262° West 281 323 9,800 -780 Level FlightAware ADS-B
04:14PM 37.0664 -121.3930 262° West 286 329 9,400 -1,320 Descending FlightAware ADS-B
04:15PM 37.0633 -121.4200 262° West 283 326 9,100 -960 Descending FlightAware ADS-B
04:15PM 37.0605 -121.4450 262° West 284 327 8,900 -960 Descending FlightAware ADS-B
04:15PM 37.0576 -121.4720 262° West 283 326 8,600 -900 Descending FlightAware ADS-B
04:15PM 37.0544 -121.5000 262° West 281 323 8,400 -780 Descending FlightAware ADS-B
04:16PM 37.0514 -121.5260 262° West 282 325 8,200 -1,020 Descending FlightAware ADS-B
04:16PM 37.0499 -121.5390 262° West 282 325 8,000 -1,140 Descending FlightAware ADS-B
04:16PM 37.0500 -121.5520 271° West 280 322 7,900 -480 Descending FlightAware ADS-B
04:16PM 37.0514 -121.5610 281° West 279 321 7,900 -720 Level FlightAware ADS-B
04:16PM 37.0525 -121.5650 289° West 279 321 7,800 -900 Descending FlightAware ADS-B
04:16PM 37.0545 -121.5710 293° West 277 319 7,800 -720 Level FlightAware ADS-B
04:16PM 37.0577 -121.5790 297° West 278 320 7,700 -1,680 Descending FlightAware ADS-B
04:16PM 37.0624 -121.5870 306° West 276 318 7,500 -1,680 Descending FlightAware ADS-B
04:16PM 37.0664 -121.5920 315° West 274 315 7,400 -1,380 Descending FlightAware ADS-B
04:17PM 37.0864 -121.6150 317° Northwest 270 311 6,900 -1,440 Descending FlightAware ADS-B
04:17PM 37.1005 -121.6330 314° West 270 311 6,500 -1,140 Descending FlightAware ADS-B
04:17PM 37.1111 -121.6550 301° West 269 310 6,300 -840 Descending FlightAware ADS-B
04:17PM 37.1152 -121.6610 311° West 267 307 6,200 -1,440 Descending FlightAware ADS-B
04:18PM 37.1217 -121.6690 316° Northwest 266 306 6,000 -1,440 Descending FlightAware ADS-B
04:18PM 37.1272 -121.6740 324° Northwest 267 307 5,900 -1,320 Descending FlightAware ADS-B
04:18PM 37.1353 -121.6820 322° Northwest 269 310 5,700 -1,320 Descending FlightAware ADS-B
04:18PM 37.1495 -121.6970 320° Northwest 267 307 5,400 -1,440 Descending FlightAware ADS-B
04:18PM 37.1639 -121.7130 318° Northwest 266 306 5,000 -1,620 Descending FlightAware ADS-B
04:19PM 37.1780 -121.7280 320° Northwest 266 306 4,600 -1,560 Descending FlightAware ADS-B
04:19PM 37.1928 -121.7440 319° Northwest 262 302 4,200 -1,560 Descending FlightAware ADS-B
04:19PM 37.2100 -121.7630 319° Northwest 255 293 3,700 -1,380 Descending FlightAware ADS-B
04:19PM 37.2229 -121.7770 319° Northwest 235 270 3,400 -1,140 Descending FlightAware ADS-B
04:20PM 37.2356 -121.7910 319° Northwest 216 249 3,100 -1,320 Descending FlightAware ADS-B
04:20PM 37.2446 -121.8010 319° Northwest 204 235 2,800 -1,260 Descending FlightAware ADS-B
04:20PM 37.2558 -121.8130 320° Northwest 184 212 2,500 -960 Descending FlightAware ADS-B
04:20PM 37.2653 -121.8230 320° Northwest 169 194 2,300 -840 Descending FlightAware ADS-B
04:21PM 37.2736 -121.8320 319° Northwest 152 175 2,100 -780 Descending FlightAware ADS-B
04:21PM 37.2818 -121.8410 319° Northwest 139 160 1,900 -900 Descending FlightAware ADS-B
04:21PM 37.2898 -121.8500 318° Northwest 124 143 1,600 -720 Descending FlightAware ADS-B
04:22PM 37.2969 -121.8580 318° Northwest 123 142 1,500 -660 Descending FlightAware ADS-B
04:22PM 37.3059 -121.8680 319° Northwest 125 144 1,200 -840 Descending FlightAware ADS-B
04:22PM 37.3125 -121.8750 320° Northwest 122 140 1,000 -600 Descending FlightAware ADS-B
04:22PM 37.3198 -121.8830 319° Northwest 121 139 900 -660 Descending FlightAware ADS-B
04:23PM 37.3287 -121.8930 318° Northwest 123 142 600 -780 Descending FlightAware ADS-B
04:23PM 37.3365 -121.9010 321° Northwest 121 139 400 -480 Descending FlightAware ADS-B
04:24PM 37.3489 -121.9167 321° Northwest 128 147 200 -360 Descending Oakland Center
04:26PM 37.3500 -121.9167 North  Level FlightAware Approximate
04:33PM 37.3627 -121.9291 North  Level Estimated